createdAt,value
2018-04-26T00:18:17.521Z,98779
2018-04-26T00:20:23.085Z,98766
2018-04-26T00:22:27.229Z,98767
2018-04-26T00:24:31.746Z,98771
2018-04-26T00:26:35.837Z,98764
2018-04-26T00:28:39.681Z,98760
2018-04-26T00:30:44.339Z,98766
2018-04-26T00:32:48.493Z,98767
2018-04-26T00:34:52.809Z,98760
2018-04-26T00:36:57.330Z,98755
2018-04-26T00:39:01.923Z,98753
2018-04-26T00:41:06.786Z,98749
2018-04-26T00:43:11.823Z,98746
2018-04-26T00:45:16.540Z,98750
2018-04-26T00:47:22.005Z,98741
2018-04-26T00:49:26.413Z,98749
2018-04-26T00:51:39.182Z,98749
2018-04-26T00:53:43.077Z,98753
2018-04-26T00:55:47.834Z,98757
2018-04-26T00:57:51.817Z,98754
2018-04-26T00:59:55.724Z,98757
2018-04-26T01:02:00.211Z,98760
2018-04-26T01:04:04.514Z,98759
2018-04-26T01:06:09.858Z,98762
2018-04-26T01:08:14.464Z,98755
2018-04-26T01:10:20.590Z,98746
2018-04-26T01:12:25.182Z,98755
2018-04-26T01:14:29.340Z,98755
2018-04-26T01:16:33.949Z,98760
2018-04-26T01:18:37.880Z,98753
2018-04-26T01:20:41.969Z,98751
2018-04-26T01:22:46.564Z,98747
2018-04-26T01:24:50.769Z,98746
2018-04-26T01:26:54.743Z,98749
2018-04-26T01:28:59.348Z,98746
2018-04-26T01:31:03.659Z,98749
2018-04-26T01:33:08.814Z,98748
2018-04-26T01:35:13.501Z,98750
2018-04-26T01:37:54.661Z,98752
2018-04-26T01:39:58.805Z,98754
2018-04-26T01:42:02.705Z,98747
2018-04-26T01:44:07.278Z,98748
2018-04-26T01:46:11.530Z,98745
2018-04-26T01:48:17.349Z,98748
2018-04-26T01:50:23.652Z,98748
2018-04-26T01:52:27.497Z,98744
2018-04-26T01:54:31.608Z,98755
2018-04-26T01:56:36.101Z,98759
2018-04-26T01:58:40.284Z,98766
2018-04-26T02:00:44.556Z,98772
2018-04-26T02:02:49.211Z,98769
2018-04-26T02:04:53.358Z,98776
2018-04-26T02:06:57.490Z,98770
2018-04-26T02:09:02.184Z,98775
2018-04-26T02:11:06.460Z,98766
2018-04-26T02:13:12.148Z,98770
2018-04-26T02:15:19.436Z,98769
2018-04-26T02:17:25.497Z,98767
2018-04-26T02:19:29.962Z,98774
2018-04-26T02:21:34.544Z,98773
2018-04-26T02:23:38.668Z,98771
2018-04-26T02:25:42.888Z,98790
2018-04-26T02:27:47.364Z,98774
2018-04-26T02:29:51.535Z,98766
2018-04-26T02:31:55.748Z,98775
2018-04-26T02:34:00.427Z,98782
2018-04-26T02:36:04.705Z,98786
2018-04-26T02:38:09.610Z,98776
2018-04-26T02:40:15.060Z,98777
2018-04-26T02:42:20.686Z,98791
2018-04-26T02:44:26.320Z,98800
2018-04-26T02:46:31.270Z,98790
2018-04-26T02:48:35.602Z,98784
2018-04-26T02:50:39.865Z,98785
2018-04-26T02:52:44.256Z,98781
2018-04-26T02:54:49.054Z,98787
2018-04-26T02:56:53.082Z,98782
2018-04-26T02:58:57.360Z,98789
2018-04-26T03:01:01.826Z,98792
2018-04-26T03:03:06.389Z,98785
2018-04-26T03:05:12.527Z,98794
2018-04-26T03:07:17.446Z,98786
2018-04-26T03:09:22.950Z,98787
2018-04-26T03:11:27.420Z,98790
2018-04-26T03:13:32.174Z,98795
2018-04-26T03:15:36.410Z,98783
2018-04-26T03:17:40.721Z,98797
2018-04-26T03:19:45.281Z,98800
2018-04-26T03:21:49.422Z,98799
2018-04-26T03:23:53.370Z,98805
2018-04-26T03:25:57.455Z,98800
2018-04-26T03:28:02.081Z,98790
2018-04-26T03:30:07.095Z,98804
2018-04-26T03:32:13.040Z,98805
2018-04-26T03:34:17.067Z,98802
2018-04-26T03:36:22.897Z,98802
2018-04-26T03:38:27.062Z,98803
2018-04-26T03:40:31.105Z,98808
2018-04-26T03:42:35.857Z,98807
2018-04-26T03:44:40.198Z,98812
2018-04-26T03:46:44.468Z,98819
2018-04-26T03:48:48.465Z,98818
2018-04-26T03:50:53.213Z,98817
2018-04-26T03:52:57.245Z,98827
2018-04-26T03:55:01.428Z,98819
2018-04-26T03:57:05.377Z,98825
2018-04-26T03:59:12.551Z,98822
2018-04-26T04:02:28.035Z,98826
2018-04-26T04:05:48.694Z,98826
2018-04-26T04:07:52.967Z,98830
2018-04-26T04:09:57.152Z,98834
2018-04-26T04:12:01.177Z,98832
2018-04-26T04:14:05.293Z,98818
2018-04-26T04:16:09.686Z,98825
2018-04-26T04:18:13.712Z,98831
2018-04-26T04:20:18.112Z,98823
2018-04-26T04:22:26.093Z,98818
2018-04-26T04:24:30.078Z,98825
2018-04-26T04:26:33.910Z,98829
2018-04-26T04:28:38.094Z,98829
2018-04-26T04:30:41.969Z,98825
2018-04-26T04:32:45.808Z,98822
2018-04-26T04:34:50.275Z,98820
2018-04-26T04:36:54.253Z,98819
2018-04-26T04:38:58.459Z,98813
2018-04-26T04:41:02.774Z,98818
2018-04-26T04:43:07.674Z,98817
2018-04-26T04:45:13.610Z,98827
2018-04-26T04:47:20.158Z,98825
2018-04-26T04:49:24.549Z,98825
2018-04-26T04:51:28.521Z,98822
2018-04-26T04:53:32.805Z,98819
2018-04-26T04:55:37.074Z,98817
2018-04-26T04:57:41.048Z,98837
2018-04-26T04:59:46.725Z,98826
2018-04-26T05:01:50.735Z,98844
2018-04-26T05:03:54.771Z,98852
2018-04-26T05:05:59.577Z,98848
2018-04-26T05:08:03.680Z,98849
2018-04-26T05:10:07.736Z,98853
2018-04-26T05:12:12.131Z,98855
2018-04-26T05:14:16.947Z,98858
2018-04-26T05:16:21.658Z,98861
2018-04-26T05:18:25.996Z,98866
2018-04-26T05:20:30.238Z,98865
2018-04-26T05:22:34.109Z,98876
2018-04-26T05:24:38.300Z,98872
2018-04-26T05:26:42.157Z,98879
2018-04-26T05:28:46.061Z,98873
2018-04-26T05:30:51.303Z,98887
2018-04-26T05:32:55.137Z,98890
2018-04-26T05:34:59.173Z,98884
2018-04-26T05:37:03.564Z,98889
2018-04-26T05:39:07.501Z,98892
2018-04-26T05:41:11.668Z,98890
2018-04-26T05:43:16.407Z,98895
2018-04-26T05:45:21.619Z,98908
2018-04-26T05:47:26.919Z,98894
2018-04-26T05:49:31.801Z,98917
2018-04-26T05:51:36.442Z,98903
2018-04-26T05:53:40.918Z,98890
2018-04-26T05:55:45.734Z,98919
2018-04-26T05:57:49.546Z,98921
2018-04-26T05:59:53.723Z,98925
2018-04-26T06:01:57.869Z,98915
2018-04-26T06:04:02.158Z,98932
2018-04-26T06:06:09.056Z,98922
2018-04-26T06:08:13.546Z,98934
2018-04-26T06:10:19.100Z,98943
2018-04-26T06:12:23.844Z,98942
2018-04-26T06:14:28.229Z,98931
2018-04-26T06:16:32.097Z,98942
2018-04-26T06:18:36.118Z,98979
2018-04-26T06:20:40.466Z,98962
2018-04-26T06:22:44.612Z,98959
2018-04-26T06:24:48.896Z,99010
2018-04-26T06:26:53.389Z,98980
2018-04-26T06:28:58.014Z,98975
2018-04-26T06:31:02.237Z,98953
2018-04-26T06:33:08.456Z,98981
2018-04-26T06:35:12.578Z,98974
2018-04-26T06:37:17.805Z,98977
2018-04-26T06:39:22.754Z,98975
2018-04-26T06:41:26.706Z,98985
2018-04-26T06:43:31.054Z,99004
2018-04-26T06:45:35.345Z,99006
2018-04-26T06:47:39.399Z,98974
2018-04-26T06:49:43.666Z,98974
2018-04-26T06:51:47.820Z,99005
2018-04-26T06:53:52.023Z,98961
2018-04-26T06:55:56.017Z,98970
2018-04-26T06:58:00.261Z,98991
2018-04-26T07:00:04.569Z,98990
2018-04-26T07:02:10.819Z,98977
2018-04-26T07:04:15.921Z,98983
2018-04-26T07:06:21.461Z,98962
2018-04-26T07:08:26.297Z,98973
2018-04-26T07:10:30.725Z,98949
2018-04-26T07:12:34.913Z,98981
2018-04-26T07:14:38.827Z,99001
2018-04-26T07:16:43.685Z,98976
2018-04-26T07:18:48.129Z,98977
2018-04-26T07:20:52.222Z,98968
2018-04-26T07:22:56.841Z,98988
2018-04-26T07:25:01.131Z,98971
2018-04-26T07:27:05.302Z,98966
2018-04-26T07:29:11.106Z,98972
2018-04-26T07:31:15.519Z,98987
2018-04-26T07:33:21.535Z,98970
2018-04-26T07:35:26.470Z,98981
2018-04-26T07:37:31.328Z,98994
2018-04-26T07:39:36.964Z,98990
2018-04-26T07:41:41.764Z,99045
2018-04-26T07:43:47.370Z,99003
2018-04-26T07:45:52.278Z,99038
2018-04-26T07:48:02.268Z,99003
2018-04-26T07:50:08.731Z,99007
2018-04-26T07:52:13.012Z,98998
2018-04-26T07:54:19.558Z,98987
2018-04-26T07:56:27.081Z,99017
2018-04-26T07:58:32.372Z,99033
2018-04-26T08:00:36.801Z,99025
2018-04-26T08:02:41.647Z,99073
2018-04-26T08:04:45.954Z,99014
2018-04-26T08:06:50.289Z,99007
2018-04-26T08:08:54.506Z,99009
2018-04-26T08:10:59.336Z,99004
2018-04-26T08:13:04.153Z,99013
2018-04-26T08:15:10.422Z,99008
2018-04-26T08:17:14.456Z,99016
2018-04-26T08:19:21.220Z,99051
2018-04-26T08:21:25.790Z,99056
2018-04-26T08:23:29.896Z,99013
2018-04-26T08:25:34.511Z,99029
2018-04-26T08:27:38.629Z,99004
2018-04-26T08:29:43.281Z,99003
2018-04-26T08:31:47.833Z,99023
2018-04-26T08:33:52.295Z,99010
2018-04-26T08:35:56.599Z,99090
2018-04-26T08:38:01.113Z,99021
2018-04-26T08:40:05.349Z,99062
2018-04-26T08:42:11.190Z,99021
2018-04-26T08:44:16.081Z,99028
2018-04-26T08:46:23.076Z,99048
2018-04-26T08:48:28.918Z,99046
2018-04-26T08:50:33.566Z,99068
2018-04-26T08:52:37.629Z,99025
2018-04-26T08:54:42.142Z,99017
2018-04-26T08:56:46.483Z,99075
2018-04-26T08:58:51.054Z,99027
2018-04-26T09:00:55.357Z,99064
2018-04-26T09:03:00.042Z,99046
2018-04-26T09:05:04.481Z,99021
2018-04-26T09:07:11.150Z,99029
2018-04-26T09:09:15.854Z,99032
2018-04-26T09:11:21.094Z,99071
2018-04-26T09:13:25.322Z,99063
2018-04-26T09:15:30.412Z,99066
2018-04-26T09:17:39.399Z,99020
2018-04-26T09:19:43.671Z,99076
2018-04-26T09:21:48.080Z,99063
2018-04-26T09:23:52.242Z,99056
2018-04-26T09:25:56.298Z,99067
2018-04-26T09:28:00.827Z,99062
2018-04-26T09:30:05.187Z,99047
2018-04-26T09:32:11.913Z,99052
2018-04-26T09:34:20.623Z,99054
2018-04-26T09:36:25.765Z,99037
2018-04-26T09:38:30.456Z,99044
2018-04-26T09:40:34.948Z,99043
2018-04-26T09:42:39.235Z,99066
2018-04-26T09:44:43.910Z,99045
2018-04-26T09:46:48.537Z,99051
2018-04-26T09:48:52.864Z,99083
2018-04-26T09:50:56.872Z,99054
2018-04-26T09:53:01.693Z,99110
2018-04-26T09:57:25.174Z,99072
2018-04-26T09:59:29.724Z,99092
2018-04-26T10:01:36.058Z,99054
2018-04-26T10:03:40.408Z,99077
2018-04-26T10:05:48.703Z,99033
2018-04-26T10:07:52.906Z,99080
2018-04-26T10:09:59.519Z,99042
2018-04-26T10:12:04.364Z,99048
2018-04-26T10:14:12.083Z,99062
2018-04-26T10:16:16.874Z,99039
2018-04-26T10:18:24.213Z,99018
2018-04-26T10:20:28.412Z,99041
2018-04-26T10:22:32.535Z,99106
2018-04-26T10:24:36.808Z,99093
2018-04-26T10:26:40.968Z,99063
2018-04-26T10:28:45.017Z,99063
2018-04-26T10:30:49.537Z,99057
2018-04-26T10:32:53.738Z,99047
2018-04-26T10:34:58.002Z,99062
2018-04-26T10:37:02.396Z,99070
2018-04-26T10:39:08.400Z,99071
2018-04-26T10:41:12.746Z,99107
2018-04-26T10:43:17.354Z,99107
2018-04-26T10:45:22.547Z,99126
2018-04-26T10:47:27.451Z,99131
2018-04-26T10:49:31.738Z,99120
2018-04-26T10:51:36.094Z,99157
2018-04-26T10:53:40.483Z,99158
2018-04-26T10:55:47.518Z,99163
2018-04-26T10:57:51.971Z,99162
2018-04-26T10:59:56.095Z,99172
2018-04-26T11:02:00.213Z,99160
2018-04-26T11:04:04.122Z,99154
2018-04-26T11:06:09.096Z,99149
2018-04-26T11:08:13.900Z,99155
2018-04-26T11:10:18.520Z,99203
2018-04-26T11:12:22.788Z,99227
2018-04-26T11:14:27.001Z,99161
2018-04-26T11:16:31.044Z,99139
2018-04-26T11:18:34.942Z,99169
2018-04-26T11:20:43.649Z,99128
2018-04-26T11:22:47.541Z,99133
2018-04-26T11:24:51.504Z,99132
2018-04-26T11:26:55.920Z,99121
2018-04-26T11:28:59.877Z,99157
2018-04-26T11:31:03.993Z,99127
2018-04-26T11:33:10.702Z,99136
2018-04-26T11:35:14.973Z,99146
2018-04-26T11:37:23.447Z,99130
2018-04-26T11:39:28.601Z,99144
2018-04-26T11:41:33.244Z,99127
2018-04-26T11:43:38.097Z,99144
2018-04-26T11:45:43.057Z,99128
2018-04-26T11:49:12.255Z,99139
2018-04-26T11:51:18.635Z,99128
2018-04-26T11:53:25.623Z,99121
2018-04-26T11:55:31.539Z,99150
2018-04-26T11:57:36.006Z,99121
2018-04-26T11:59:40.310Z,99121
2018-04-26T12:01:45.187Z,99138
